sensor_id;sensor_type;location;lat;lon;timestamp;pressure;altitude;pressure_sealevel;temperature;humidity
35989;BME280;22064;42.672;23.282;2023-04-29T00:00:51;94725.19;;;5.68;100.00
35989;BME280;22064;42.672;23.282;2023-04-29T00:03:17;94730.16;;;5.63;100.00
35989;BME280;22064;42.672;23.282;2023-04-29T00:05:44;94723.63;;;5.61;100.00
35989;BME280;22064;42.672;23.282;2023-04-29T00:08:10;94732.22;;;5.54;100.00
35989;BME280;22064;42.672;23.282;2023-04-29T00:10:36;94739.13;;;5.61;100.00
35989;BME280;22064;42.672;23.282;2023-04-29T00:13:02;94728.59;;;5.62;100.00
35989;BME280;22064;42.672;23.282;2023-04-29T00:15:28;94734.03;;;5.47;100.00
35989;BME280;22064;42.672;23.282;2023-04-29T00:17:54;94731.69;;;5.46;100.00
35989;BME280;22064;42.672;23.282;2023-04-29T00:20:20;94738.00;;;5.50;100.00
35989;BME280;22064;42.672;23.282;2023-04-29T00:22:46;94735.66;;;5.42;100.00
35989;BME280;22064;42.672;23.282;2023-04-29T00:25:12;94733.75;;;5.30;100.00
35989;BME280;22064;42.672;23.282;2023-04-29T00:27:38;94735.13;;;5.26;100.00
35989;BME280;22064;42.672;23.282;2023-04-29T00:30:06;94734.34;;;5.26;100.00
35989;BME280;22064;42.672;23.282;2023-04-29T00:32:32;94737.88;;;5.38;100.00
35989;BME280;22064;42.672;23.282;2023-04-29T00:34:59;94741.81;;;5.41;100.00
35989;BME280;22064;42.672;23.282;2023-04-29T00:37:25;94731.19;;;5.24;100.00
35989;BME280;22064;42.672;23.282;2023-04-29T00:39:51;94734.31;;;5.39;100.00
35989;BME280;22064;42.672;23.282;2023-04-29T00:42:17;94732.53;;;5.33;100.00
35989;BME280;22064;42.672;23.282;2023-04-29T00:44:42;94726.63;;;5.19;100.00
35989;BME280;22064;42.672;23.282;2023-04-29T00:47:08;94729.16;;;5.32;100.00
35989;BME280;22064;42.672;23.282;2023-04-29T00:49:38;94725.69;;;5.52;100.00
35989;BME280;22064;42.672;23.282;2023-04-29T00:52:04;94726.81;;;5.63;100.00
35989;BME280;22064;42.672;23.282;2023-04-29T00:54:36;94730.97;;;5.64;100.00
35989;BME280;22064;42.672;23.282;2023-04-29T00:57:03;94723.00;;;5.33;100.00
35989;BME280;22064;42.672;23.282;2023-04-29T00:59:32;94722.03;;;5.28;100.00
35989;BME280;22064;42.672;23.282;2023-04-29T01:02:01;94717.94;;;5.07;100.00
35989;BME280;22064;42.672;23.282;2023-04-29T01:04:29;94716.56;;;5.11;100.00
35989;BME280;22064;42.672;23.282;2023-04-29T01:07:17;94701.75;;;4.93;100.00
35989;BME280;22064;42.672;23.282;2023-04-29T01:15:23;94689.03;;;4.92;100.00
35989;BME280;22064;42.672;23.282;2023-04-29T01:18:04;94684.91;;;4.84;100.00
35989;BME280;22064;42.672;23.282;2023-04-29T01:20:31;94693.25;;;4.86;100.00
35989;BME280;22064;42.672;23.282;2023-04-29T01:22:58;94693.22;;;4.93;100.00
35989;BME280;22064;42.672;23.282;2023-04-29T01:25:25;94696.78;;;4.92;100.00
35989;BME280;22064;42.672;23.282;2023-04-29T01:31:40;94689.31;;;4.77;100.00
35989;BME280;22064;42.672;23.282;2023-04-29T01:34:13;94695.81;;;4.86;100.00
35989;BME280;22064;42.672;23.282;2023-04-29T01:37:15;94691.13;;;4.63;100.00
35989;BME280;22064;42.672;23.282;2023-04-29T01:40:04;94693.88;;;4.75;100.00
35989;BME280;22064;42.672;23.282;2023-04-29T01:42:47;94699.41;;;4.78;100.00
35989;BME280;22064;42.672;23.282;2023-04-29T01:45:18;94689.44;;;4.89;100.00
35989;BME280;22064;42.672;23.282;2023-04-29T01:47:47;94688.81;;;5.00;100.00
35989;BME280;22064;42.672;23.282;2023-04-29T01:50:17;94686.94;;;5.14;100.00
35989;BME280;22064;42.672;23.282;2023-04-29T01:52:43;94688.31;;;5.16;100.00
35989;BME280;22064;42.672;23.282;2023-04-29T01:55:09;94683.84;;;5.05;100.00
35989;BME280;22064;42.672;23.282;2023-04-29T01:57:47;94691.03;;;4.90;100.00
35989;BME280;22064;42.672;23.282;2023-04-29T02:00:37;94686.31;;;4.80;100.00
35989;BME280;22064;42.672;23.282;2023-04-29T02:03:03;94691.09;;;4.70;100.00
35989;BME280;22064;42.672;23.282;2023-04-29T02:05:36;94694.72;;;4.62;100.00
35989;BME280;22064;42.672;23.282;2023-04-29T02:08:04;94695.34;;;4.37;100.00
35989;BME280;22064;42.672;23.282;2023-04-29T02:10:34;94699.94;;;4.22;100.00
35989;BME280;22064;42.672;23.282;2023-04-29T02:13:11;94697.78;;;4.06;100.00
35989;BME280;22064;42.672;23.282;2023-04-29T02:15:39;94704.31;;;3.95;100.00
35989;BME280;22064;42.672;23.282;2023-04-29T02:18:04;94701.75;;;3.88;100.00
35989;BME280;22064;42.672;23.282;2023-04-29T02:20:31;94700.78;;;3.89;100.00
35989;BME280;22064;42.672;23.282;2023-04-29T02:22:57;94693.22;;;3.94;100.00
35989;BME280;22064;42.672;23.282;2023-04-29T02:25:23;94695.00;;;3.94;100.00
35989;BME280;22064;42.672;23.282;2023-04-29T02:27:49;94697.97;;;3.98;100.00
35989;BME280;22064;42.672;23.282;2023-04-29T02:30:16;94693.44;;;4.00;100.00
35989;BME280;22064;42.672;23.282;2023-04-29T02:32:42;94698.19;;;4.03;100.00
35989;BME280;22064;42.672;23.282;2023-04-29T02:35:08;94699.16;;;4.02;100.00
35989;BME280;22064;42.672;23.282;2023-04-29T02:37:34;94698.94;;;4.16;100.00
35989;BME280;22064;42.672;23.282;2023-04-29T02:40:01;94692.97;;;4.29;100.00
35989;BME280;22064;42.672;23.282;2023-04-29T02:42:29;94690.41;;;4.43;100.00
35989;BME280;22064;42.672;23.282;2023-04-29T02:44:55;94692.59;;;4.32;100.00
35989;BME280;22064;42.672;23.282;2023-04-29T02:47:21;94695.53;;;4.49;100.00
35989;BME280;22064;42.672;23.282;2023-04-29T02:49:47;94694.38;;;4.25;100.00
35989;BME280;22064;42.672;23.282;2023-04-29T02:52:13;94690.03;;;4.19;100.00
35989;BME280;22064;42.672;23.282;2023-04-29T02:54:39;94697.75;;;4.32;100.00
35989;BME280;22064;42.672;23.282;2023-04-29T02:57:05;94698.75;;;4.25;100.00
35989;BME280;22064;42.672;23.282;2023-04-29T02:59:32;94709.66;;;4.07;100.00
35989;BME280;22064;42.672;23.282;2023-04-29T03:01:58;94723.75;;;3.91;100.00
35989;BME280;22064;42.672;23.282;2023-04-29T03:04:24;94717.19;;;3.95;100.00
35989;BME280;22064;42.672;23.282;2023-04-29T03:06:50;94704.31;;;3.95;100.00
35989;BME280;22064;42.672;23.282;2023-04-29T03:09:16;94708.09;;;4.12;100.00
35989;BME280;22064;42.672;23.282;2023-04-29T03:11:44;94721.56;;;4.21;100.00
35989;BME280;22064;42.672;23.282;2023-04-29T03:14:11;94720.97;;;4.12;100.00
35989;BME280;22064;42.672;23.282;2023-04-29T03:16:37;94716.81;;;3.91;100.00
35989;BME280;22064;42.672;23.282;2023-04-29T03:19:02;94710.25;;;3.89;100.00
35989;BME280;22064;42.672;23.282;2023-04-29T03:21:28;94714.84;;;3.93;100.00
35989;BME280;22064;42.672;23.282;2023-04-29T03:23:54;94714.84;;;3.80;100.00
35989;BME280;22064;42.672;23.282;2023-04-29T03:26:26;94722.53;;;3.74;100.00
35989;BME280;22064;42.672;23.282;2023-04-29T03:28:52;94720.97;;;3.66;100.00
35989;BME280;22064;42.672;23.282;2023-04-29T03:31:18;94730.47;;;3.52;100.00
35989;BME280;22064;42.672;23.282;2023-04-29T03:33:47;94736.19;;;3.47;100.00
35989;BME280;22064;42.672;23.282;2023-04-29T03:36:13;94742.13;;;3.48;100.00
35989;BME280;22064;42.672;23.282;2023-04-29T03:38:49;94737.56;;;3.43;100.00
35989;BME280;22064;42.672;23.282;2023-04-29T03:41:16;94747.47;;;3.40;100.00
35989;BME280;22064;42.672;23.282;2023-04-29T03:43:42;94737.56;;;3.43;100.00
35989;BME280;22064;42.672;23.282;2023-04-29T03:46:09;94733.00;;;3.45;100.00
35989;BME280;22064;42.672;23.282;2023-04-29T03:48:35;94743.91;;;3.61;100.00
35989;BME280;22064;42.672;23.282;2023-04-29T03:51:02;94730.88;;;3.82;100.00
35989;BME280;22064;42.672;23.282;2023-04-29T03:53:29;94736.03;;;4.09;100.00
35989;BME280;22064;42.672;23.282;2023-04-29T03:55:56;94732.25;;;4.31;100.00
35989;BME280;22064;42.672;23.282;2023-04-29T03:58:22;94725.09;;;4.40;100.00
35989;BME280;22064;42.672;23.282;2023-04-29T04:00:48;94735.38;;;4.60;100.00
35989;BME280;22064;42.672;23.282;2023-04-29T04:03:19;94740.09;;;4.76;100.00
35989;BME280;22064;42.672;23.282;2023-04-29T04:05:46;94737.25;;;4.98;100.00
35989;BME280;22064;42.672;23.282;2023-04-29T04:08:14;94735.19;;;5.13;100.00
35989;BME280;22064;42.672;23.282;2023-04-29T04:10:53;94750.53;;;5.08;100.00
35989;BME280;22064;42.672;23.282;2023-04-29T04:13:32;94751.19;;;4.90;100.00
35989;BME280;22064;42.672;23.282;2023-04-29T04:15:58;94748.22;;;4.86;100.00
35989;BME280;22064;42.672;23.282;2023-04-29T04:18:24;94749.03;;;4.80;100.00
35989;BME280;22064;42.672;23.282;2023-04-29T04:20:50;94750.16;;;4.91;100.00
35989;BME280;22064;42.672;23.282;2023-04-29T04:23:16;94746.81;;;4.84;100.00
35989;BME280;22064;42.672;23.282;2023-04-29T04:25:47;94743.88;;;4.67;100.00
35989;BME280;22064;42.672;23.282;2023-04-29T04:28:36;94733.94;;;4.77;100.00
35989;BME280;22064;42.672;23.282;2023-04-29T04:31:07;94731.41;;;4.71;100.00
35989;BME280;22064;42.672;23.282;2023-04-29T04:33:34;94738.94;;;4.66;100.00
35989;BME280;22064;42.672;23.282;2023-04-29T04:36:01;94738.75;;;4.54;100.00
35989;BME280;22064;42.672;23.282;2023-04-29T04:38:27;94737.19;;;4.46;100.00
35989;BME280;22064;42.672;23.282;2023-04-29T04:40:53;94753.25;;;4.61;100.00
35989;BME280;22064;42.672;23.282;2023-04-29T04:43:30;94749.25;;;4.66;100.00
35989;BME280;22064;42.672;23.282;2023-04-29T04:45:56;94756.13;;;4.92;100.00
35989;BME280;22064;42.672;23.282;2023-04-29T04:48:23;94751.41;;;4.75;100.00
35989;BME280;22064;42.672;23.282;2023-04-29T04:50:51;94759.13;;;4.82;100.00
35989;BME280;22064;42.672;23.282;2023-04-29T04:53:17;94749.41;;;4.84;100.00
35989;BME280;22064;42.672;23.282;2023-04-29T04:55:52;94747.25;;;5.26;100.00
35989;BME280;22064;42.672;23.282;2023-04-29T04:58:19;94740.16;;;5.53;100.00
35989;BME280;22064;42.672;23.282;2023-04-29T05:00:45;94740.16;;;5.85;100.00
35989;BME280;22064;42.672;23.282;2023-04-29T05:03:11;94743.91;;;6.20;100.00
35989;BME280;22064;42.672;23.282;2023-04-29T05:05:37;94730.97;;;6.45;100.00
35989;BME280;22064;42.672;23.282;2023-04-29T05:08:03;94730.19;;;6.82;100.00
35989;BME280;22064;42.672;23.282;2023-04-29T05:10:36;94726.47;;;6.96;100.00
35989;BME280;22064;42.672;23.282;2023-04-29T05:13:03;94718.25;;;6.99;100.00
35989;BME280;22064;42.672;23.282;2023-04-29T05:15:29;94713.00;;;7.06;100.00
35989;BME280;22064;42.672;23.282;2023-04-29T05:17:57;94711.75;;;7.27;100.00
35989;BME280;22064;42.672;23.282;2023-04-29T05:20:24;94702.72;;;7.48;100.00
35989;BME280;22064;42.672;23.282;2023-04-29T05:22:50;94713.03;;;7.78;100.00
35989;BME280;22064;42.672;23.282;2023-04-29T05:25:17;94710.72;;;8.00;100.00
35989;BME280;22064;42.672;23.282;2023-04-29T05:27:43;94713.78;;;8.20;100.00
35989;BME280;22064;42.672;23.282;2023-04-29T05:30:13;94705.13;;;8.50;100.00
35989;BME280;22064;42.672;23.282;2023-04-29T05:32:40;94701.38;;;8.34;100.00
35989;BME280;22064;42.672;23.282;2023-04-29T05:35:09;94710.56;;;8.48;100.00
35989;BME280;22064;42.672;23.282;2023-04-29T05:37:34;94709.97;;;8.58;100.00
35989;BME280;22064;42.672;23.282;2023-04-29T05:40:27;94700.81;;;8.67;100.00
35989;BME280;22064;42.672;23.282;2023-04-29T05:43:06;94695.06;;;8.65;100.00
35989;BME280;22064;42.672;23.282;2023-04-29T05:45:32;94697.72;;;8.94;100.00
35989;BME280;22064;42.672;23.282;2023-04-29T05:47:57;94701.13;;;8.94;100.00
35989;BME280;22064;42.672;23.282;2023-04-29T05:50:23;94709.28;;;9.27;100.00
35989;BME280;22064;42.672;23.282;2023-04-29T05:52:49;94723.13;;;8.21;100.00
35989;BME280;22064;42.672;23.282;2023-04-29T05:55:17;94694.66;;;7.37;100.00
35989;BME280;22064;42.672;23.282;2023-04-29T05:57:43;94711.53;;;7.10;100.00
35989;BME280;22064;42.672;23.282;2023-04-29T06:00:09;94717.44;;;7.47;100.00
35989;BME280;22064;42.672;23.282;2023-04-29T06:02:39;94710.53;;;7.29;100.00
35989;BME280;22064;42.672;23.282;2023-04-29T06:05:09;94712.28;;;7.47;100.00
35989;BME280;22064;42.672;23.282;2023-04-29T06:07:44;94718.41;;;7.64;100.00
35989;BME280;22064;42.672;23.282;2023-04-29T06:10:30;94710.69;;;7.46;100.00
35989;BME280;22064;42.672;23.282;2023-04-29T06:12:56;94715.00;;;7.52;100.00
35989;BME280;22064;42.672;23.282;2023-04-29T06:15:22;94703.72;;;7.89;100.00
35989;BME280;22064;42.672;23.282;2023-04-29T06:17:49;94714.78;;;7.96;100.00
35989;BME280;22064;42.672;23.282;2023-04-29T06:20:14;94690.56;;;8.14;100.00
35989;BME280;22064;42.672;23.282;2023-04-29T06:22:41;94714.78;;;8.07;100.00
35989;BME280;22064;42.672;23.282;2023-04-29T06:25:07;94702.84;;;8.30;100.00
35989;BME280;22064;42.672;23.282;2023-04-29T06:27:53;94723.16;;;8.80;100.00
35989;BME280;22064;42.672;23.282;2023-04-29T06:30:22;94722.03;;;8.76;100.00
35989;BME280;22064;42.672;23.282;2023-04-29T06:32:48;94712.19;;;8.31;100.00
35989;BME280;22064;42.672;23.282;2023-04-29T06:35:14;94716.69;;;8.12;100.00
35989;BME280;22064;42.672;23.282;2023-04-29T06:37:52;94707.66;;;7.79;100.00
35989;BME280;22064;42.672;23.282;2023-04-29T06:40:50;94704.22;;;8.32;100.00
35989;BME280;22064;42.672;23.282;2023-04-29T06:43:45;94707.06;;;8.43;100.00
35989;BME280;22064;42.672;23.282;2023-04-29T06:46:14;94710.94;;;8.92;100.00
35989;BME280;22064;42.672;23.282;2023-04-29T06:48:49;94701.88;;;9.07;100.00
35989;BME280;22064;42.672;23.282;2023-04-29T06:51:15;94703.41;;;8.79;100.00
35989;BME280;22064;42.672;23.282;2023-04-29T06:53:41;94702.91;;;8.94;100.00
35989;BME280;22064;42.672;23.282;2023-04-29T06:56:08;94696.28;;;9.27;100.00
35989;BME280;22064;42.672;23.282;2023-04-29T06:58:33;94705.44;;;9.75;100.00
35989;BME280;22064;42.672;23.282;2023-04-29T07:00:59;94701.19;;;10.02;100.00
35989;BME280;22064;42.672;23.282;2023-04-29T07:03:25;94707.69;;;10.33;95.85
35989;BME280;22064;42.672;23.282;2023-04-29T07:05:51;94703.41;;;10.61;90.26
35989;BME280;22064;42.672;23.282;2023-04-29T07:08:17;94694.66;;;10.89;91.42
35989;BME280;22064;42.672;23.282;2023-04-29T07:10:43;94695.41;;;11.33;81.33
35989;BME280;22064;42.672;23.282;2023-04-29T07:13:08;94698.69;;;11.73;74.38
35989;BME280;22064;42.672;23.282;2023-04-29T07:15:35;94687.16;;;11.96;70.86
35989;BME280;22064;42.672;23.282;2023-04-29T07:18:05;94691.09;;;11.71;68.95
35989;BME280;22064;42.672;23.282;2023-04-29T07:20:31;94694.66;;;10.89;73.44
35989;BME280;22064;42.672;23.282;2023-04-29T07:22:57;94697.09;;;10.57;79.99
35989;BME280;22064;42.672;23.282;2023-04-29T07:25:25;94687.66;;;10.34;81.32
35989;BME280;22064;42.672;23.282;2023-04-29T07:27:54;94696.28;;;10.34;82.27
35989;BME280;22064;42.672;23.282;2023-04-29T07:30:23;94690.28;;;10.73;80.08
35989;BME280;22064;42.672;23.282;2023-04-29T07:32:50;94693.97;;;10.77;78.48
35989;BME280;22064;42.672;23.282;2023-04-29T07:35:17;94691.25;;;10.50;79.05
35989;BME280;22064;42.672;23.282;2023-04-29T07:37:43;94685.84;;;10.73;78.01
35989;BME280;22064;42.672;23.282;2023-04-29T07:40:10;94675.44;;;11.17;74.26
35989;BME280;22064;42.672;23.282;2023-04-29T07:42:37;94685.59;;;11.95;67.93
35989;BME280;22064;42.672;23.282;2023-04-29T07:45:05;94684.22;;;12.19;62.32
35989;BME280;22064;42.672;23.282;2023-04-29T07:47:32;94688.38;;;12.58;59.18
35989;BME280;22064;42.672;23.282;2023-04-29T07:49:58;94681.38;;;11.89;58.19
35989;BME280;22064;42.672;23.282;2023-04-29T07:52:23;94678.25;;;11.92;59.75
35989;BME280;22064;42.672;23.282;2023-04-29T07:54:49;94666.16;;;12.55;57.68
35989;BME280;22064;42.672;23.282;2023-04-29T07:57:15;94671.09;;;12.99;55.40
35989;BME280;22064;42.672;23.282;2023-04-29T07:59:41;94654.25;;;13.53;53.15
35989;BME280;22064;42.672;23.282;2023-04-29T08:02:07;94656.63;;;14.16;50.78
35989;BME280;22064;42.672;23.282;2023-04-29T08:04:33;94656.06;;;14.65;48.31
35989;BME280;22064;42.672;23.282;2023-04-29T08:07:03;94647.97;;;13.64;48.69
35989;BME280;22064;42.672;23.282;2023-04-29T08:09:29;94659.63;;;13.21;50.42
35989;BME280;22064;42.672;23.282;2023-04-29T08:11:55;94660.56;;;13.77;50.04
35989;BME280;22064;42.672;23.282;2023-04-29T08:14:21;94661.03;;;12.76;51.37
35989;BME280;22064;42.672;23.282;2023-04-29T08:16:47;94660.91;;;12.50;53.16
35989;BME280;22064;42.672;23.282;2023-04-29T08:19:13;94657.94;;;12.84;53.42
35989;BME280;22064;42.672;23.282;2023-04-29T08:21:39;94656.78;;;13.22;51.46
35989;BME280;22064;42.672;23.282;2023-04-29T08:24:06;94652.94;;;13.50;50.04
35989;BME280;22064;42.672;23.282;2023-04-29T08:26:32;94649.06;;;13.99;49.38
35989;BME280;22064;42.672;23.282;2023-04-29T08:28:58;94654.22;;;14.50;47.36
35989;BME280;22064;42.672;23.282;2023-04-29T08:31:24;94652.97;;;14.27;46.75
35989;BME280;22064;42.672;23.282;2023-04-29T08:33:50;94648.78;;;14.10;47.64
35989;BME280;22064;42.672;23.282;2023-04-29T08:36:16;94653.72;;;14.38;47.41
35989;BME280;22064;42.672;23.282;2023-04-29T08:38:42;94647.59;;;14.88;46.93
35989;BME280;22064;42.672;23.282;2023-04-29T08:41:09;94641.75;;;15.51;45.60
35989;BME280;22064;42.672;23.282;2023-04-29T08:43:35;94629.16;;;15.58;45.56
35989;BME280;22064;42.672;23.282;2023-04-29T08:46:02;94635.63;;;15.71;45.36
35989;BME280;22064;42.672;23.282;2023-04-29T08:48:29;94635.56;;;16.10;44.83
35989;BME280;22064;42.672;23.282;2023-04-29T08:50:55;94635.03;;;16.43;43.26
35989;BME280;22064;42.672;23.282;2023-04-29T08:53:23;94619.84;;;16.88;42.43
35989;BME280;22064;42.672;23.282;2023-04-29T08:55:49;94622.97;;;17.33;41.55
35989;BME280;22064;42.672;23.282;2023-04-29T08:58:15;94623.59;;;17.62;40.77
35989;BME280;22064;42.672;23.282;2023-04-29T09:00:42;94616.53;;;17.76;39.78
35989;BME280;22064;42.672;23.282;2023-04-29T09:03:21;94623.59;;;17.81;39.49
35989;BME280;22064;42.672;23.282;2023-04-29T09:05:52;94607.97;;;17.52;39.77
35989;BME280;22064;42.672;23.282;2023-04-29T09:08:19;94609.97;;;17.60;39.43
35989;BME280;22064;42.672;23.282;2023-04-29T09:10:46;94616.69;;;17.47;39.45
35989;BME280;22064;42.672;23.282;2023-04-29T09:13:26;94618.84;;;17.45;39.23
35989;BME280;22064;42.672;23.282;2023-04-29T09:15:52;94611.66;;;17.51;38.67
35989;BME280;22064;42.672;23.282;2023-04-29T09:23:42;94616.66;;;16.43;39.73
35989;BME280;22064;42.672;23.282;2023-04-29T09:26:08;94615.94;;;15.74;41.55
35989;BME280;22064;42.672;23.282;2023-04-29T09:28:33;94604.63;;;15.73;41.73
35989;BME280;22064;42.672;23.282;2023-04-29T09:31:01;94601.47;;;16.34;40.93
35989;BME280;22064;42.672;23.282;2023-04-29T09:33:31;94600.75;;;15.60;41.31
35989;BME280;22064;42.672;23.282;2023-04-29T09:35:57;94592.28;;;15.34;41.99
35989;BME280;22064;42.672;23.282;2023-04-29T09:38:23;94594.28;;;15.53;41.65
35989;BME280;22064;42.672;23.282;2023-04-29T09:40:50;94580.41;;;15.86;41.91
35989;BME280;22064;42.672;23.282;2023-04-29T09:43:17;94587.97;;;16.70;41.00
35989;BME280;22064;42.672;23.282;2023-04-29T09:45:45;94584.97;;;15.31;42.48
35989;BME280;22064;42.672;23.282;2023-04-29T09:48:12;94579.66;;;14.92;43.61
35989;BME280;22064;42.672;23.282;2023-04-29T09:50:40;94585.69;;;14.97;43.34
35989;BME280;22064;42.672;23.282;2023-04-29T09:53:09;94586.78;;;14.86;44.30
35989;BME280;22064;42.672;23.282;2023-04-29T09:58:31;94568.69;;;15.34;42.82
35989;BME280;22064;42.672;23.282;2023-04-29T10:01:02;94572.13;;;15.69;42.31
35989;BME280;22064;42.672;23.282;2023-04-29T10:03:32;94574.16;;;16.06;41.48
35989;BME280;22064;42.672;23.282;2023-04-29T10:05:59;94556.19;;;16.19;40.64
35989;BME280;22064;42.672;23.282;2023-04-29T10:08:26;94559.59;;;16.67;40.15
35989;BME280;22064;42.672;23.282;2023-04-29T10:10:55;94544.94;;;17.42;39.56
35989;BME280;22064;42.672;23.282;2023-04-29T10:13:25;94546.84;;;17.88;37.83
35989;BME280;22064;42.672;23.282;2023-04-29T10:16:00;94547.13;;;18.33;37.28
35989;BME280;22064;42.672;23.282;2023-04-29T10:18:36;94544.81;;;18.73;36.30
35989;BME280;22064;42.672;23.282;2023-04-29T10:21:06;94532.94;;;18.56;37.21
35989;BME280;22064;42.672;23.282;2023-04-29T10:23:32;94541.97;;;17.62;37.75
35989;BME280;22064;42.672;23.282;2023-04-29T10:26:00;94532.78;;;16.46;38.20
35989;BME280;22064;42.672;23.282;2023-04-29T10:28:31;94549.63;;;16.16;39.65
35989;BME280;22064;42.672;23.282;2023-04-29T10:31:01;94533.22;;;16.05;39.74
35989;BME280;22064;42.672;23.282;2023-04-29T10:33:31;94530.25;;;16.36;38.17
35989;BME280;22064;42.672;23.282;2023-04-29T10:35:59;94533.03;;;16.45;38.38
35989;BME280;22064;42.672;23.282;2023-04-29T10:38:42;94533.22;;;15.76;38.52
35989;BME280;22064;42.672;23.282;2023-04-29T10:41:22;94532.50;;;15.65;38.16
35989;BME280;22064;42.672;23.282;2023-04-29T10:43:51;94539.59;;;15.65;39.53
35989;BME280;22064;42.672;23.282;2023-04-29T10:46:19;94537.84;;;15.89;39.07
35989;BME280;22064;42.672;23.282;2023-04-29T10:48:47;94529.03;;;16.28;38.05
35989;BME280;22064;42.672;23.282;2023-04-29T10:56:39;94541.81;;;15.47;41.33
35989;BME280;22064;42.672;23.282;2023-04-29T10:59:12;94532.03;;;15.58;39.85
35989;BME280;22064;42.672;23.282;2023-04-29T11:01:47;94531.16;;;16.02;39.21
35989;BME280;22064;42.672;23.282;2023-04-29T11:04:15;94533.09;;;16.63;39.25
35989;BME280;22064;42.672;23.282;2023-04-29T11:06:46;94519.44;;;17.04;38.78
35989;BME280;22064;42.672;23.282;2023-04-29T11:09:26;94522.75;;;16.48;36.31
35989;BME280;22064;42.672;23.282;2023-04-29T11:12:03;94521.53;;;16.40;36.68
35989;BME280;22064;42.672;23.282;2023-04-29T11:14:41;94526.91;;;16.30;37.20
35989;BME280;22064;42.672;23.282;2023-04-29T11:17:12;94524.66;;;16.19;37.15
35989;BME280;22064;42.672;23.282;2023-04-29T11:19:41;94515.81;;;16.57;36.18
35989;BME280;22064;42.672;23.282;2023-04-29T11:22:12;94520.19;;;16.19;34.20
35989;BME280;22064;42.672;23.282;2023-04-29T11:25:07;94529.47;;;15.82;34.70
35989;BME280;22064;42.672;23.282;2023-04-29T11:27:36;94524.75;;;15.50;35.09
35989;BME280;22064;42.672;23.282;2023-04-29T11:30:04;94494.22;;;15.59;34.81
35989;BME280;22064;42.672;23.282;2023-04-29T11:32:35;94524.09;;;15.98;34.81
35989;BME280;22064;42.672;23.282;2023-04-29T11:35:09;94520.03;;;15.81;35.33
35989;BME280;22064;42.672;23.282;2023-04-29T11:37:36;94523.38;;;15.58;36.10
35989;BME280;22064;42.672;23.282;2023-04-29T11:40:02;94514.56;;;15.43;35.72
35989;BME280;22064;42.672;23.282;2023-04-29T11:42:28;94518.63;;;15.60;36.01
35989;BME280;22064;42.672;23.282;2023-04-29T11:44:54;94517.81;;;15.64;35.75
35989;BME280;22064;42.672;23.282;2023-04-29T11:47:26;94511.50;;;15.65;35.84
35989;BME280;22064;42.672;23.282;2023-04-29T11:49:52;94518.81;;;15.39;35.57
35989;BME280;22064;42.672;23.282;2023-04-29T11:52:19;94518.75;;;15.44;35.89
35989;BME280;22064;42.672;23.282;2023-04-29T11:54:46;94518.72;;;15.50;36.12
35989;BME280;22064;42.672;23.282;2023-04-29T11:57:12;94503.69;;;15.26;36.02
35989;BME280;22064;42.672;23.282;2023-04-29T11:59:37;94507.81;;;15.32;36.03
35989;BME280;22064;42.672;23.282;2023-04-29T12:02:10;94507.44;;;15.49;36.35
35989;BME280;22064;42.672;23.282;2023-04-29T12:04:46;94503.19;;;15.87;36.88
35989;BME280;22064;42.672;23.282;2023-04-29T12:07:15;94502.84;;;15.70;36.97
35989;BME280;22064;42.672;23.282;2023-04-29T12:09:43;94505.63;;;15.79;38.33
35989;BME280;22064;42.672;23.282;2023-04-29T12:12:10;94487.66;;;15.91;37.98
35989;BME280;22064;42.672;23.282;2023-04-29T12:14:37;94509.59;;;16.29;38.77
35989;BME280;22064;42.672;23.282;2023-04-29T12:17:04;94499.84;;;15.47;40.16
35989;BME280;22064;42.672;23.282;2023-04-29T12:19:30;94503.97;;;15.54;40.40
35989;BME280;22064;42.672;23.282;2023-04-29T12:22:01;94495.31;;;15.58;41.02
35989;BME280;22064;42.672;23.282;2023-04-29T12:24:27;94485.91;;;15.52;40.94
35989;BME280;22064;42.672;23.282;2023-04-29T12:26:56;94492.13;;;15.61;39.40
35989;BME280;22064;42.672;23.282;2023-04-29T12:29:25;94488.72;;;15.61;40.03
35989;BME280;22064;42.672;23.282;2023-04-29T12:31:51;94482.00;;;15.79;39.51
35989;BME280;22064;42.672;23.282;2023-04-29T12:34:29;94489.94;;;15.98;39.61
35989;BME280;22064;42.672;23.282;2023-04-29T12:36:57;94488.97;;;16.17;39.47
35989;BME280;22064;42.672;23.282;2023-04-29T12:39:25;94479.28;;;16.13;38.86
35989;BME280;22064;42.672;23.282;2023-04-29T12:41:57;94488.28;;;15.83;39.36
35989;BME280;22064;42.672;23.282;2023-04-29T12:44:24;94484.06;;;15.82;39.43
35989;BME280;22064;42.672;23.282;2023-04-29T12:46:50;94488.44;;;15.91;38.03
35989;BME280;22064;42.672;23.282;2023-04-29T12:49:23;94489.19;;;15.68;38.16
35989;BME280;22064;42.672;23.282;2023-04-29T12:51:49;94476.72;;;15.84;38.00
35989;BME280;22064;42.672;23.282;2023-04-29T12:54:15;94477.47;;;15.55;38.50
35989;BME280;22064;42.672;23.282;2023-04-29T12:56:41;94482.91;;;15.64;40.54
35989;BME280;22064;42.672;23.282;2023-04-29T12:59:08;94474.00;;;15.60;41.03
35989;BME280;22064;42.672;23.282;2023-04-29T13:01:35;94472.22;;;15.55;41.38
35989;BME280;22064;42.672;23.282;2023-04-29T13:04:01;94465.97;;;15.80;41.74
35989;BME280;22064;42.672;23.282;2023-04-29T13:06:30;94478.06;;;16.29;40.00
35989;BME280;22064;42.672;23.282;2023-04-29T13:08:56;94479.84;;;16.34;39.43
35989;BME280;22064;42.672;23.282;2023-04-29T13:11:22;94472.66;;;16.39;39.49
35989;BME280;22064;42.672;23.282;2023-04-29T13:13:48;94451.66;;;16.39;39.99
35989;BME280;22064;42.672;23.282;2023-04-29T13:16:14;94459.28;;;16.79;39.73
35989;BME280;22064;42.672;23.282;2023-04-29T13:18:41;94459.69;;;17.24;40.07
35989;BME280;22064;42.672;23.282;2023-04-29T13:21:07;94458.88;;;17.89;41.10